Fort Benton (79S)
Fort Benton, MT
Field Elevation: 2868
Lat: 47°50.71N  Long: 110°38.19W
CTAF/Unicom Freq: 122.8000
   
     For Weather-by-Phone, call 406-622-5976
Weather Advisories
2021-12-02   07:16 Z
Altimeter 29.84" Hg
Wind 210° @ 9 KT
Gusts 18 KT
Visibility 10 SM
Temperature 16° C (61° F)
Dewpoint 4° C (39° F)
Relative Humidity 47%
Density Altitude --
Condensation Altitude 8,400 feet
Wind and Runways
Indicated Runway = 23
Headwind = 8 kt
Crosswind = 3 kt
History
 
 
 
More Info
NOAA Forecast
 
 
About Us
Belfort Instrument
 
 
FAA Disclaimer: The data displayed is for advisory purposes only and is not to be used for flight planning or operations. For official data, please call 406-622-5976 to hear the current automated AWOS voice message.
  METAR 79S 020716Z AUTO 21009G18KT 10 SM 16/04 A2984